Pagrindinis puslapis
METAR-TAF:

METAR-TAF

Oro uostai :

Irkutskas, Rusija

platuma: 52-16N, ilguma: 104-19E, Aukštis: 513 m

Dabartinis oras

Ataskaita buvo paskelbta 36 minutes, ne 13:30 UTC
Vėjas 6 kt iš Šiaurės Vakarų
Temperatūra 9°C
Drėgmė 53%
Slėgis 1014 hPa
Matomumas 10 km arba daugiau
nėra debesų žemiau 1500 m ir nėra kamuolinių lietaus debesų

METAR: UIII 291330Z 31003MPS CAVOK 09/00 Q1014 R30/60D NOSIG RMK QFE716/0954

Laikas: 22:06 (14:06 UTC)

Prognozė

Ataskaita buvo paskelbta 3 valandos ir 6 minutes, ne 11:00 UTC
Prognozė galioja nuo 29 metu 12 UTC su 30 metu 12 UTC
Vėjas 6 kt iš Šiaurės Vakarų
Matomumas 10 km arba daugiau
Su prošvaistėmis ne aukštis 2000 ft, Liūtiniai kamuoliniai debesys.
Laikinai
nuo 29 metu 12 UTC su 29 metu 18 UTC
Vėjas 16 kt nuo kintamojo kryptimis
Tapsmas
nuo 30 metu 05 UTC su 30 metu 07 UTC
Vėjas 10 kt iš Pietų/Pietryčių

TAF: UIII 291100Z 2912/3012 32003MPS 9999 BKN020CB TEMPO 2912/2918 VRB08MPS BECMG 3005/3007 16005MPS NSC

Orai ataskaitas ir orų prognozės (METAR, TAF).

turimą stotys yra geltonos ir raudonos taškus žemėlapyje.

Perkelti pele per norėdami pamatyti stoties vardą.

Tada spustelėkite, norėdami matyti oro stebėjimo ir prognozės.

Norėdami pakeisti žemėlapį: spustelėkite ant žalios mygtukų su juodo kryžiaus žemyn,; žalią mygtuką su brūkšneliu, jei norite nutolinti; arba žalių rodyklių gretimoms žemėlapius.


METAR-TAF: